createdAt,value
2018-07-05T01:54:07.210Z,14.75
2018-07-05T01:56:06.473Z,18.50
2018-07-05T01:58:05.513Z,15.00
2018-07-05T02:00:06.073Z,15.75
2018-07-05T02:02:04.718Z,17.00
2018-07-05T02:04:03.177Z,15.50
2018-07-05T02:06:03.194Z,16.50
2018-07-05T02:08:04.449Z,15.25
2018-07-05T02:10:03.508Z,16.00
2018-07-05T02:12:02.146Z,15.00
2018-07-05T02:14:00.681Z,19.00
2018-07-05T02:16:00.384Z,16.00
2018-07-05T02:17:59.136Z,14.00
2018-07-05T02:19:58.446Z,15.75
2018-07-05T02:21:56.978Z,16.25
2018-07-05T02:23:55.796Z,17.25
2018-07-05T02:25:54.185Z,17.75
2018-07-05T02:27:52.912Z,17.00
2018-07-05T02:29:52.261Z,15.75
2018-07-05T02:31:51.156Z,17.50
2018-07-05T02:33:49.906Z,17.00
2018-07-05T02:35:49.036Z,16.75
2018-07-05T02:37:52.804Z,15.00
2018-07-05T02:39:51.739Z,15.75
2018-07-05T02:41:52.371Z,17.75
2018-07-05T02:43:50.925Z,17.25
2018-07-05T02:45:50.090Z,18.50
2018-07-05T02:47:49.095Z,20.00
2018-07-05T02:49:47.695Z,17.75
2018-07-05T02:51:46.125Z,17.00
2018-07-05T02:53:45.770Z,18.00
2018-07-05T02:55:44.671Z,15.50
2018-07-05T02:57:37.654Z,18.75
2018-07-05T02:59:36.727Z,16.25
2018-07-05T03:01:35.598Z,16.00
2018-07-05T03:03:34.419Z,16.25
2018-07-05T03:05:33.332Z,18.50
2018-07-05T03:07:32.421Z,19.25
2018-07-05T03:09:31.122Z,18.75
2018-07-05T03:11:24.620Z,17.00
2018-07-05T03:13:23.508Z,16.25
2018-07-05T03:15:23.668Z,17.25
2018-07-05T03:17:22.301Z,19.00
2018-07-05T03:19:22.054Z,19.00
2018-07-05T03:21:20.632Z,17.00
2018-07-05T03:23:19.182Z,18.25
2018-07-05T03:25:17.612Z,19.00
2018-07-05T03:27:16.676Z,18.25
2018-07-05T03:29:15.630Z,18.50
2018-07-05T03:31:14.651Z,19.00
2018-07-05T03:33:13.453Z,18.75
2018-07-05T03:35:12.916Z,18.50
2018-07-05T03:37:05.664Z,17.50
2018-07-05T03:39:05.441Z,17.00
2018-07-05T03:41:04.718Z,16.50
2018-07-05T03:43:03.965Z,18.25
2018-07-05T03:45:04.073Z,17.75
2018-07-05T03:47:03.014Z,16.50
2018-07-05T03:49:01.681Z,17.50
2018-07-05T03:51:00.857Z,14.75
2018-07-05T03:52:59.834Z,19.00
2018-07-05T03:54:58.728Z,16.25
2018-07-05T03:56:58.268Z,18.50
2018-07-05T03:58:57.892Z,18.00
2018-07-05T04:00:56.486Z,18.50
2018-07-05T04:02:55.609Z,18.25
2018-07-05T04:04:54.442Z,16.75
2018-07-05T04:06:52.929Z,17.50
2018-07-05T04:08:51.762Z,21.00
2018-07-05T04:10:51.127Z,17.25
2018-07-05T04:12:51.535Z,19.00
2018-07-05T04:14:52.939Z,19.00
2018-07-05T04:16:52.677Z,19.75
2018-07-05T04:18:51.154Z,19.25
2018-07-05T04:20:50.832Z,19.25
2018-07-05T04:22:49.759Z,19.00
2018-07-05T04:24:49.468Z,16.75
2018-07-05T04:26:42.762Z,19.25
2018-07-05T04:29:03.942Z,22.50
2018-07-05T04:31:03.753Z,19.25
2018-07-05T04:33:02.519Z,18.25
2018-07-05T04:35:01.627Z,16.25
2018-07-05T04:37:00.485Z,18.75
2018-07-05T04:39:00.751Z,18.75
2018-07-05T04:40:59.922Z,19.50
2018-07-05T04:43:00.906Z,18.75
2018-07-05T04:45:00.970Z,16.50
2018-07-05T04:46:55.240Z,17.50
2018-07-05T04:48:54.225Z,19.75
2018-07-05T04:50:52.799Z,17.75
2018-07-05T04:52:52.556Z,16.75
2018-07-05T04:54:51.865Z,16.00
2018-07-05T04:56:51.998Z,21.50
2018-07-05T04:58:51.465Z,17.75
2018-07-05T05:00:50.341Z,19.00
2018-07-05T05:02:49.140Z,20.00
2018-07-05T05:04:48.598Z,19.00
2018-07-05T05:06:47.617Z,19.25
2018-07-05T05:08:40.362Z,19.00
2018-07-05T05:10:35.510Z,19.00
2018-07-05T05:12:35.486Z,19.00
2018-07-05T05:14:36.702Z,19.00
2018-07-05T05:16:35.907Z,19.75
2018-07-05T05:18:34.803Z,20.00
2018-07-05T05:20:50.965Z,20.25
2018-07-05T05:22:45.060Z,20.00
2018-07-05T05:24:44.319Z,20.50
2018-07-05T05:26:43.141Z,20.50
2018-07-05T05:28:42.465Z,21.00
2018-07-05T05:30:42.795Z,19.25
2018-07-05T05:32:41.469Z,19.25
2018-07-05T05:34:40.353Z,22.00
2018-07-05T05:36:39.251Z,21.75
2018-07-05T05:38:37.796Z,22.25
2018-07-05T05:40:40.791Z,22.00
2018-07-05T05:42:40.263Z,21.50
2018-07-05T05:44:39.835Z,19.00
2018-07-05T05:46:40.605Z,21.00
2018-07-05T05:48:42.141Z,19.00
2018-07-05T05:50:36.128Z,19.50
2018-07-05T05:52:29.384Z,19.75
2018-07-05T05:54:29.396Z,20.00
2018-07-05T05:56:31.813Z,20.25
2018-07-05T05:58:24.901Z,17.75
2018-07-05T06:00:25.694Z,19.50
2018-07-05T06:02:25.127Z,21.00
2018-07-05T06:04:23.647Z,17.50
2018-07-05T06:06:22.175Z,15.75
2018-07-05T06:08:21.316Z,16.25
2018-07-05T06:10:22.740Z,17.50
2018-07-05T06:12:26.319Z,16.75
2018-07-05T06:14:26.032Z,17.50
2018-07-05T06:16:25.149Z,18.75
2018-07-05T06:18:26.327Z,17.50
2018-07-05T06:20:29.478Z,16.75
2018-07-05T06:22:28.619Z,17.50
2018-07-05T06:24:28.235Z,18.75
2018-07-05T06:26:29.330Z,18.50
2018-07-05T06:28:29.132Z,19.50
2018-07-05T06:30:29.413Z,17.50
2018-07-05T06:32:28.205Z,20.75
2018-07-05T06:34:27.519Z,21.00
2018-07-05T06:36:28.307Z,20.00
2018-07-05T06:38:26.838Z,19.00
2018-07-05T06:40:27.445Z,19.25
2018-07-05T06:42:27.854Z,21.00
2018-07-05T06:44:27.562Z,21.00
2018-07-05T06:46:30.550Z,20.00
2018-07-05T06:48:30.478Z,20.00
2018-07-05T06:50:29.634Z,19.00
2018-07-05T06:52:28.604Z,21.00
2018-07-05T06:54:27.276Z,20.50
2018-07-05T06:56:25.932Z,19.75
2018-07-05T06:58:24.770Z,20.50
2018-07-05T07:00:24.993Z,19.25
2018-07-05T07:02:23.713Z,22.00
2018-07-05T07:04:29.002Z,21.00
2018-07-05T07:06:28.452Z,20.75
2018-07-05T07:08:27.086Z,22.00
2018-07-05T07:10:25.951Z,21.75
2018-07-05T07:12:24.463Z,22.25
2018-07-05T07:14:22.984Z,22.25
2018-07-05T07:16:24.978Z,20.25
2018-07-05T07:18:23.433Z,22.25
2018-07-05T07:20:25.598Z,22.25
2018-07-05T07:22:24.460Z,22.75
2018-07-05T07:24:23.059Z,22.00
2018-07-05T07:26:21.659Z,22.00
2018-07-05T07:28:26.639Z,21.75
2018-07-05T07:30:28.594Z,24.25
2018-07-05T07:32:27.589Z,23.00
2018-07-05T07:34:20.538Z,22.50
2018-07-05T07:36:19.382Z,24.00
2018-07-05T07:38:18.626Z,21.00
2018-07-05T07:40:19.493Z,21.25
2018-07-05T07:42:01.803Z,22.00
2018-07-05T07:43:36.010Z,23.00
2018-07-05T07:45:10.089Z,22.00
2018-07-05T07:46:45.528Z,23.75
2018-07-05T07:48:27.367Z,22.00
2018-07-05T07:50:03.164Z,23.00
2018-07-05T07:51:40.572Z,20.75
2018-07-05T07:53:15.026Z,21.00
2018-07-05T07:54:50.872Z,21.75
2018-07-05T07:56:33.108Z,21.75
2018-07-05T07:58:13.877Z,21.00
2018-07-05T07:59:49.777Z,21.50
2018-07-05T08:01:26.040Z,25.00
2018-07-05T08:03:03.895Z,24.00
2018-07-05T08:04:39.870Z,23.00
2018-07-05T08:06:17.505Z,23.00
2018-07-05T08:07:53.876Z,22.75
2018-07-05T08:09:28.016Z,22.75
2018-07-05T08:11:02.114Z,22.50
2018-07-05T08:12:37.594Z,21.75
2018-07-05T08:14:27.740Z,22.00
2018-07-05T08:16:04.692Z,26.25
2018-07-05T08:17:41.310Z,24.00
2018-07-05T08:19:15.602Z,22.25
2018-07-05T08:20:49.737Z,22.00
2018-07-05T08:22:28.979Z,25.00
2018-07-05T08:24:06.907Z,25.50
2018-07-05T08:25:43.518Z,25.50
2018-07-05T08:27:21.232Z,26.00
2018-07-05T08:28:58.194Z,25.00
2018-07-05T08:30:35.242Z,23.75
2018-07-05T08:32:13.326Z,25.00
2018-07-05T08:33:51.254Z,25.75
2018-07-05T08:35:33.843Z,25.75
2018-07-05T08:37:07.981Z,26.00
2018-07-05T08:38:42.799Z,24.25
2018-07-05T08:40:17.455Z,22.00
2018-07-05T08:41:52.352Z,23.25
2018-07-05T08:43:32.661Z,22.00
2018-07-05T08:45:10.505Z,23.00
2018-07-05T08:50:35.484Z,24.75
2018-07-05T08:52:41.795Z,23.25
2018-07-05T08:54:22.496Z,25.00
2018-07-05T08:55:57.837Z,24.00
2018-07-05T08:57:33.380Z,25.00
2018-07-05T08:59:11.297Z,25.50
2018-07-05T09:00:54.448Z,26.00
2018-07-05T09:02:35.267Z,27.00
2018-07-05T09:04:12.164Z,23.25
2018-07-05T09:05:46.472Z,24.75
2018-07-05T09:07:22.054Z,24.75
2018-07-05T09:08:58.572Z,25.00
2018-07-05T09:10:36.406Z,25.00
2018-07-05T09:12:12.276Z,25.75
2018-07-05T09:13:47.657Z,23.75
2018-07-05T09:15:41.725Z,25.00
2018-07-05T09:17:17.426Z,25.50
2018-07-05T09:18:52.920Z,26.75
2018-07-05T09:22:11.714Z,23.50
2018-07-05T09:23:47.411Z,24.25
2018-07-05T09:25:21.567Z,25.75
2018-07-05T09:26:56.634Z,22.75
2018-07-05T09:28:30.542Z,24.50
2018-07-05T09:30:06.386Z,23.00
2018-07-05T09:31:41.768Z,23.50
2018-07-05T09:33:17.627Z,41.00
2018-07-05T09:34:54.818Z,24.25
2018-07-05T09:36:29.210Z,24.75
2018-07-05T09:38:03.180Z,25.50
2018-07-05T09:39:39.276Z,25.00
2018-07-05T09:41:16.826Z,23.25
2018-07-05T09:42:54.591Z,25.00
2018-07-05T09:44:49.701Z,25.25
2018-07-05T09:46:28.887Z,25.25
2018-07-05T09:48:09.249Z,25.00
2018-07-05T09:49:48.548Z,25.75
2018-07-05T09:51:25.524Z,25.50
2018-07-05T09:53:04.663Z,25.00
2018-07-05T09:54:40.409Z,25.75
2018-07-05T09:56:16.020Z,25.00
2018-07-05T09:59:48.410Z,25.25
2018-07-05T10:01:23.451Z,25.25
2018-07-05T10:03:01.861Z,24.50
2018-07-05T10:04:37.969Z,25.75
2018-07-05T10:06:16.439Z,25.00
2018-07-05T10:07:54.054Z,23.00
2018-07-05T10:09:31.283Z,23.25
2018-07-05T10:11:17.208Z,22.75
2018-07-05T10:12:58.546Z,25.00
2018-07-05T10:14:33.386Z,24.00
2018-07-05T10:16:12.486Z,24.75
2018-07-05T10:17:50.887Z,24.50
2018-07-05T10:19:29.385Z,22.50
2018-07-05T10:21:07.325Z,24.00
2018-07-05T10:22:43.842Z,23.50
2018-07-05T10:24:20.315Z,22.25
2018-07-05T10:25:55.448Z,23.50
2018-07-05T10:27:38.895Z,21.75
2018-07-05T10:29:36.420Z,23.00
2018-07-05T10:31:42.211Z,22.75
2018-07-05T10:33:45.644Z,23.75
2018-07-05T10:35:34.482Z,21.00
2018-07-05T10:37:18.008Z,21.00
2018-07-05T10:38:52.374Z,22.00
2018-07-05T10:40:46.324Z,22.25
2018-07-05T10:42:46.548Z,21.00
2018-07-05T10:44:46.417Z,23.00
2018-07-05T10:46:44.398Z,22.00
2018-07-05T10:48:50.995Z,24.00
2018-07-05T10:50:50.595Z,23.00
2018-07-05T10:52:50.505Z,22.00
2018-07-05T10:54:50.514Z,21.00
2018-07-05T10:56:51.785Z,18.00
2018-07-05T10:58:52.367Z,20.75
2018-07-05T11:00:59.643Z,19.00
2018-07-05T11:02:59.668Z,17.50
2018-07-05T11:07:07.987Z,23.25
2018-07-05T11:09:08.798Z,19.25
2018-07-05T11:11:07.559Z,17.75
2018-07-05T11:13:09.156Z,24.25
2018-07-05T11:15:09.261Z,19.50
2018-07-05T11:17:09.414Z,19.00
2018-07-05T11:19:08.529Z,21.00
2018-07-05T11:21:10.549Z,18.00
2018-07-05T11:30:27.817Z,15.50
2018-07-05T11:32:28.727Z,19.00
2018-07-05T11:34:32.688Z,16.50
2018-07-05T11:36:34.979Z,15.75
2018-07-05T11:38:36.290Z,14.25
2018-07-05T11:40:38.811Z,15.25
2018-07-05T11:42:37.353Z,17.50
2018-07-05T11:44:36.010Z,15.50
2018-07-05T11:46:39.303Z,17.00
2018-07-05T11:48:37.975Z,14.25
2018-07-05T11:50:36.525Z,17.00
2018-07-05T11:52:35.440Z,14.25
2018-07-05T11:54:34.236Z,15.00
2018-07-05T11:56:32.950Z,15.75
2018-07-05T12:00:50.495Z,14.75
2018-07-05T12:02:50.580Z,14.50
2018-07-05T12:04:51.715Z,16.00
2018-07-05T12:06:52.191Z,12.25
2018-07-05T12:08:51.298Z,15.00
2018-07-05T12:10:50.546Z,14.50
2018-07-05T12:12:52.340Z,13.00
2018-07-05T12:14:46.901Z,15.25
2018-07-05T12:16:47.633Z,14.25
2018-07-05T12:18:46.273Z,14.25
2018-07-05T12:20:45.144Z,14.25
2018-07-05T12:22:44.154Z,14.50
2018-07-05T12:24:42.658Z,14.75
2018-07-05T12:26:41.248Z,16.00
2018-07-05T12:28:39.718Z,13.75
2018-07-05T12:30:41.524Z,14.00
2018-07-05T12:32:41.689Z,13.25
2018-07-05T12:34:42.212Z,14.00
2018-07-05T12:36:41.745Z,14.25
2018-07-05T12:38:42.137Z,14.00
2018-07-05T12:40:44.952Z,13.25
2018-07-05T12:42:46.198Z,15.00
2018-07-05T12:44:44.750Z,16.75
2018-07-05T12:46:43.773Z,12.75
2018-07-05T12:48:46.641Z,17.75
2018-07-05T12:50:47.594Z,13.50
2018-07-05T12:52:46.425Z,16.50
2018-07-05T12:54:45.231Z,10.75
2018-07-05T12:56:44.727Z,14.25
2018-07-05T12:58:44.475Z,13.00
2018-07-05T13:00:44.956Z,14.25
2018-07-05T13:02:43.565Z,13.00
2018-07-05T13:06:49.238Z,12.75
2018-07-05T13:08:48.732Z,12.00
2018-07-05T13:10:48.229Z,12.50
2018-07-05T13:12:48.580Z,12.00
2018-07-05T13:14:47.348Z,11.00
2018-07-05T13:16:46.675Z,11.00
2018-07-05T13:18:47.377Z,12.00
2018-07-05T13:20:54.034Z,11.25
2018-07-05T13:22:56.573Z,12.00
2018-07-05T13:24:55.915Z,12.00
2018-07-05T13:26:58.684Z,11.00
2018-07-05T13:28:59.635Z,11.25
2018-07-05T13:30:52.439Z,9.25
2018-07-05T13:32:52.229Z,11.00
2018-07-05T13:34:52.695Z,10.75
2018-07-05T13:36:51.366Z,11.50
2018-07-05T13:38:50.765Z,10.50
2018-07-05T13:42:29.863Z,10.75
2018-07-05T13:44:29.264Z,7.50
2018-07-05T13:46:28.237Z,11.00
2018-07-05T13:48:26.788Z,9.00
2018-07-05T13:50:25.299Z,8.50
2018-07-05T13:52:24.111Z,8.50
2018-07-05T13:54:22.608Z,9.00
2018-07-05T13:56:21.131Z,10.00
2018-07-05T13:58:20.104Z,10.50
2018-07-05T14:00:19.298Z,11.00
2018-07-05T14:02:17.939Z,11.00
2018-07-05T14:04:17.016Z,11.00
2018-07-05T14:06:17.161Z,11.75
2018-07-05T14:08:15.900Z,10.50
2018-07-05T14:10:15.193Z,10.25
2018-07-05T14:12:13.776Z,9.75
2018-07-05T14:14:12.576Z,8.75
2018-07-05T14:16:15.743Z,7.50
2018-07-05T14:18:15.089Z,8.00
2018-07-05T14:20:15.271Z,9.00
2018-07-05T14:22:16.423Z,7.25
2018-07-05T14:24:16.227Z,7.00
2018-07-05T14:26:17.006Z,7.50
2018-07-05T14:28:16.967Z,6.00
2018-07-05T14:30:17.211Z,5.50
2018-07-05T14:32:16.414Z,5.25
2018-07-05T14:34:16.850Z,5.50
2018-07-05T14:36:15.683Z,4.75
2018-07-05T14:38:15.876Z,4.25
2018-07-05T14:40:14.836Z,4.50
2018-07-05T14:42:13.470Z,5.25
2018-07-05T14:44:12.826Z,3.75
2018-07-05T14:46:16.583Z,3.25
2018-07-05T14:48:15.643Z,24.50
2018-07-05T14:50:14.922Z,5.00
2018-07-05T14:52:15.733Z,5.75
2018-07-05T14:54:15.981Z,6.00
2018-07-05T14:56:14.705Z,3.75
2018-07-05T14:58:15.470Z,5.25
2018-07-05T15:00:16.302Z,5.00
2018-07-05T15:02:09.972Z,4.25
2018-07-05T15:04:08.751Z,5.00
2018-07-05T15:06:07.217Z,6.00
2018-07-05T15:08:05.772Z,5.00
2018-07-05T15:10:05.366Z,6.25
2018-07-05T15:12:05.023Z,6.50
2018-07-05T15:14:03.672Z,6.50
2018-07-05T15:16:03.743Z,7.75
2018-07-05T15:18:02.283Z,5.50
2018-07-05T15:20:01.293Z,6.00
2018-07-05T15:21:59.929Z,7.50
2018-07-05T15:24:00.028Z,9.75
2018-07-05T15:26:00.924Z,6.75
2018-07-05T15:27:59.556Z,5.00
2018-07-05T15:30:01.554Z,5.00
2018-07-05T15:32:02.245Z,6.00
2018-07-05T15:34:02.698Z,6.00
2018-07-05T15:36:02.459Z,8.00
2018-07-05T15:38:02.308Z,5.75
2018-07-05T15:40:04.371Z,6.00
2018-07-05T15:42:03.574Z,6.75
2018-07-05T15:44:03.197Z,6.25
2018-07-05T15:46:03.181Z,6.00
2018-07-05T15:48:02.228Z,5.50
2018-07-05T15:50:00.977Z,4.25
2018-07-05T15:51:59.465Z,5.00
2018-07-05T15:53:58.569Z,8.50
2018-07-05T15:55:57.334Z,6.00
2018-07-05T15:57:57.623Z,6.00
2018-07-05T15:59:57.117Z,7.00
2018-07-05T16:01:57.519Z,5.00
2018-07-05T16:03:58.785Z,5.75
2018-07-05T16:05:58.330Z,6.75
2018-07-05T16:07:58.322Z,5.25
2018-07-05T16:09:57.477Z,5.25
2018-07-05T16:11:56.514Z,5.25
2018-07-05T16:13:55.176Z,8.25
2018-07-05T16:15:54.124Z,5.50
2018-07-05T16:17:53.425Z,5.00
2018-07-05T16:19:51.900Z,4.00
2018-07-05T16:21:50.416Z,6.00
2018-07-05T16:23:52.300Z,5.75
2018-07-05T16:25:50.708Z,6.00
2018-07-05T16:27:49.257Z,5.75
2018-07-05T16:29:47.729Z,6.75
2018-07-05T16:31:40.315Z,6.00
2018-07-05T16:33:39.435Z,5.00
2018-07-05T16:35:40.224Z,6.00
2018-07-05T16:37:39.474Z,4.75
2018-07-05T16:39:38.043Z,8.25
2018-07-05T16:41:36.501Z,5.75
2018-07-05T16:43:35.984Z,6.00
2018-07-05T16:45:39.649Z,6.50
2018-07-05T16:47:39.284Z,5.75
2018-07-05T16:49:37.968Z,6.00
2018-07-05T16:53:49.316Z,6.25
2018-07-05T16:55:47.903Z,7.00
2018-07-05T16:57:46.435Z,7.00
2018-07-05T16:59:46.335Z,6.75
2018-07-05T17:01:45.407Z,5.00
2018-07-05T17:03:38.941Z,5.50
2018-07-05T17:05:40.692Z,7.00
2018-07-05T17:07:39.731Z,6.25
2018-07-05T17:09:38.518Z,7.00
2018-07-05T17:11:38.550Z,5.00
2018-07-05T17:13:41.646Z,5.50
2018-07-05T17:15:42.993Z,6.00
2018-07-05T17:17:41.907Z,13.25
2018-07-05T17:19:42.297Z,5.50
2018-07-05T17:21:41.806Z,6.00
2018-07-05T17:23:44.196Z,4.00
2018-07-05T17:25:43.501Z,5.50
2018-07-05T17:27:42.176Z,5.00
2018-07-05T17:29:40.924Z,5.75
2018-07-05T17:31:39.872Z,4.50
2018-07-05T17:33:38.594Z,5.00
2018-07-05T17:35:37.732Z,6.00
2018-07-05T17:37:36.450Z,5.50
2018-07-05T17:39:35.989Z,6.00
2018-07-05T17:41:34.873Z,5.75
2018-07-05T17:43:35.959Z,6.25
2018-07-05T17:45:36.144Z,5.00
2018-07-05T17:47:36.237Z,13.50
2018-07-05T17:49:36.864Z,4.75
2018-07-05T17:51:36.591Z,35.25
2018-07-05T17:53:38.451Z,3.75
2018-07-05T17:55:38.258Z,12.00
2018-07-05T17:57:37.445Z,3.50
2018-07-05T17:59:36.502Z,3.75
2018-07-05T18:01:36.392Z,3.75
2018-07-05T18:03:37.389Z,5.00
2018-07-05T18:05:36.650Z,4.00
2018-07-05T18:07:35.256Z,4.50
2018-07-05T18:09:35.635Z,9.00
2018-07-05T18:11:36.079Z,5.25
2018-07-05T18:13:35.665Z,5.25
2018-07-05T18:15:34.774Z,10.50
2018-07-05T18:17:34.409Z,5.00
2018-07-05T18:19:33.151Z,5.50
2018-07-05T18:21:31.728Z,9.00
2018-07-05T18:23:34.349Z,5.00
2018-07-05T18:25:34.644Z,5.00
2018-07-05T18:27:33.849Z,7.00
2018-07-05T18:29:32.955Z,5.50
2018-07-05T18:31:35.109Z,6.50
2018-07-05T18:33:34.718Z,7.00
2018-07-05T18:35:35.580Z,7.00
2018-07-05T18:37:38.836Z,7.00
2018-07-05T18:39:38.142Z,8.25
2018-07-05T18:41:37.904Z,9.00
2018-07-05T18:43:36.577Z,7.75
2018-07-05T18:45:36.013Z,5.50
2018-07-05T18:47:36.474Z,9.00
2018-07-05T18:49:36.586Z,8.00
2018-07-05T18:51:38.559Z,13.25
2018-07-05T18:53:37.889Z,8.75
2018-07-05T18:55:36.966Z,9.00
2018-07-05T18:57:36.465Z,8.25
2018-07-05T18:59:35.416Z,9.00
2018-07-05T19:01:34.432Z,10.00
2018-07-05T19:03:34.793Z,8.75
2018-07-05T19:05:34.083Z,8.00
2018-07-05T19:07:33.509Z,6.50
2018-07-05T19:09:33.411Z,8.75
2018-07-05T19:11:33.615Z,11.50
2018-07-05T19:13:34.120Z,9.75
2018-07-05T19:15:34.263Z,10.50
2018-07-05T19:17:35.131Z,9.00
2018-07-05T19:19:33.788Z,9.75
2018-07-05T19:21:33.920Z,9.50
2018-07-05T19:23:36.698Z,8.25
2018-07-05T19:25:38.862Z,6.50
2018-07-05T19:27:40.535Z,7.50
2018-07-05T19:29:40.128Z,7.00
2018-07-05T19:31:39.723Z,6.50
2018-07-05T19:33:40.506Z,6.75
2018-07-05T19:35:43.580Z,5.25
2018-07-05T19:37:43.572Z,9.00
2018-07-05T19:39:46.770Z,27.75
2018-07-05T19:41:47.397Z,4.00
2018-07-05T19:43:48.340Z,5.00
2018-07-05T19:45:48.232Z,3.75
2018-07-05T19:47:48.230Z,3.00
2018-07-05T19:49:47.438Z,3.00
2018-07-05T19:51:46.190Z,3.00
2018-07-05T19:53:45.214Z,3.00
2018-07-05T19:55:43.711Z,2.00
2018-07-05T19:57:42.454Z,2.00
2018-07-05T19:59:47.595Z,1.00
2018-07-05T20:01:48.209Z,1.75
2018-07-05T20:03:48.349Z,2.00
2018-07-05T20:05:48.584Z,2.50
2018-07-05T20:07:47.267Z,1.00
2018-07-05T20:09:47.171Z,3.00
2018-07-05T20:11:51.088Z,1.00
2018-07-05T20:13:50.550Z,2.00
2018-07-05T20:15:43.357Z,2.00
2018-07-05T20:19:45.614Z,10.00
2018-07-05T20:21:47.786Z,0.75
2018-07-05T20:23:47.305Z,1.00
2018-07-05T20:25:45.338Z,2.00
2018-07-05T20:27:44.598Z,2.25
2018-07-05T20:29:48.469Z,2.00
2018-07-05T20:31:48.301Z,1.00
2018-07-05T20:33:50.674Z,2.00
2018-07-05T20:35:54.691Z,2.00
2018-07-05T20:37:54.000Z,1.50
2018-07-05T20:41:24.482Z,2.00
2018-07-05T20:43:23.475Z,2.75
2018-07-05T20:45:22.055Z,2.25
2018-07-05T20:47:21.984Z,1.75
2018-07-05T20:49:22.208Z,2.00
2018-07-05T20:51:22.469Z,2.00
2018-07-05T20:53:22.962Z,2.00
2018-07-05T20:55:25.459Z,2.00
2018-07-05T20:57:25.681Z,2.25
2018-07-05T20:59:25.453Z,1.25
2018-07-05T21:01:24.826Z,2.00
2018-07-05T21:03:24.401Z,1.50
2018-07-05T21:05:24.054Z,3.00
2018-07-05T21:07:22.734Z,2.00
2018-07-05T21:09:22.459Z,3.00
2018-07-05T21:11:21.700Z,2.00
2018-07-05T21:13:22.043Z,1.25
2018-07-05T21:15:24.987Z,2.25
2018-07-05T21:17:27.900Z,1.25
2018-07-05T21:19:28.015Z,2.00
2018-07-05T21:21:28.561Z,3.00
2018-07-05T21:23:31.688Z,2.50
2018-07-05T21:25:30.800Z,2.25
2018-07-05T21:27:30.310Z,3.00
2018-07-05T21:29:32.218Z,2.00
2018-07-05T21:31:33.233Z,2.75
2018-07-05T21:33:32.166Z,2.25
2018-07-05T21:35:32.953Z,3.00
2018-07-05T21:37:32.559Z,1.50
2018-07-05T21:39:31.414Z,1.50
2018-07-05T21:41:31.449Z,2.00
2018-07-05T21:43:31.715Z,2.25
2018-07-05T21:45:30.405Z,1.00
2018-07-05T21:47:30.325Z,3.00
2018-07-05T21:49:30.009Z,1.25
2018-07-05T21:51:29.362Z,1.00
2018-07-05T21:53:31.303Z,1.25
2018-07-05T21:55:30.772Z,1.00
2018-07-05T21:57:29.439Z,1.25
2018-07-05T21:59:29.387Z,1.00
2018-07-05T22:01:29.214Z,0.75
2018-07-05T22:03:28.273Z,1.25
2018-07-05T22:05:28.692Z,1.00
2018-07-05T22:07:29.726Z,2.00
2018-07-05T22:09:29.256Z,2.50
2018-07-05T22:11:29.732Z,1.75
2018-07-05T22:13:31.198Z,3.00
2018-07-05T22:15:30.921Z,4.00
2018-07-05T22:17:38.086Z,3.00
2018-07-05T22:19:42.298Z,3.00
2018-07-05T22:21:45.971Z,3.00
2018-07-05T22:23:53.103Z,2.75
2018-07-05T22:25:57.294Z,3.00
2018-07-05T22:28:02.280Z,2.00
2018-07-05T22:30:05.823Z,2.00
2018-07-05T22:32:04.806Z,3.25
2018-07-05T22:34:04.984Z,3.50
2018-07-05T22:36:06.241Z,2.25
2018-07-05T22:38:05.424Z,3.00
2018-07-05T22:40:07.110Z,3.00
2018-07-05T22:42:07.205Z,3.00
2018-07-05T22:44:05.697Z,4.00
2018-07-05T22:45:58.727Z,2.25
2018-07-05T22:48:00.533Z,2.25
2018-07-05T22:49:59.304Z,2.25
2018-07-05T22:51:58.363Z,4.00
2018-07-05T22:53:58.596Z,3.75
2018-07-05T22:55:57.192Z,3.75
2018-07-05T22:57:56.277Z,3.75
2018-07-05T22:59:55.226Z,3.75
2018-07-05T23:01:55.625Z,3.25
2018-07-05T23:03:55.946Z,4.75
2018-07-05T23:05:54.674Z,3.75
2018-07-05T23:07:56.325Z,3.75
2018-07-05T23:09:55.234Z,4.75
2018-07-05T23:11:54.365Z,4.75
2018-07-05T23:13:53.127Z,3.50
2018-07-05T23:15:52.333Z,4.75
2018-07-05T23:17:52.867Z,5.25
2018-07-05T23:19:54.559Z,3.75
2018-07-05T23:21:54.265Z,3.75
2018-07-05T23:23:54.904Z,4.75
2018-07-05T23:25:53.828Z,4.50
2018-07-05T23:27:53.402Z,4.50
2018-07-05T23:29:53.977Z,5.75
2018-07-05T23:31:47.122Z,5.50
2018-07-05T23:33:45.647Z,5.00
2018-07-05T23:35:44.483Z,4.75
2018-07-05T23:37:42.966Z,5.00
2018-07-05T23:39:41.546Z,4.25
2018-07-05T23:41:40.868Z,4.50
2018-07-05T23:43:39.567Z,5.50
2018-07-05T23:45:39.032Z,5.00
2018-07-05T23:47:38.309Z,4.75
2018-07-05T23:49:37.064Z,3.25
2018-07-05T23:51:36.406Z,3.75
2018-07-05T23:53:29.730Z,4.75
2018-07-05T23:55:28.183Z,3.00
2018-07-05T23:57:27.296Z,4.25
2018-07-05T23:59:26.916Z,4.25
